sensor_id;sensor_type;location;lat;lon;timestamp;temperature;humidity
50162;DHT22;36061;48.116;11.612;2023-07-20T00:00:10;22.60;88.40
50162;DHT22;36061;48.116;11.612;2023-07-20T00:02:39;22.60;88.30
50162;DHT22;36061;48.116;11.612;2023-07-20T00:05:07;22.70;88.30
50162;DHT22;36061;48.116;11.612;2023-07-20T00:07:34;22.50;88.00
50162;DHT22;36061;48.116;11.612;2023-07-20T00:10:01;22.50;88.10
50162;DHT22;36061;48.116;11.612;2023-07-20T00:12:28;22.50;88.30
50162;DHT22;36061;48.116;11.612;2023-07-20T00:14:57;22.50;88.60
50162;DHT22;36061;48.116;11.612;2023-07-20T00:17:24;22.50;88.20
50162;DHT22;36061;48.116;11.612;2023-07-20T00:19:52;22.40;88.50
50162;DHT22;36061;48.116;11.612;2023-07-20T00:22:19;22.40;88.60
50162;DHT22;36061;48.116;11.612;2023-07-20T00:24:46;22.40;88.70
50162;DHT22;36061;48.116;11.612;2023-07-20T00:27:13;22.30;88.50
50162;DHT22;36061;48.116;11.612;2023-07-20T00:29:40;22.30;88.90
50162;DHT22;36061;48.116;11.612;2023-07-20T00:32:10;22.30;89.00
50162;DHT22;36061;48.116;11.612;2023-07-20T00:34:37;22.30;89.30
50162;DHT22;36061;48.116;11.612;2023-07-20T00:37:04;22.30;89.10
50162;DHT22;36061;48.116;11.612;2023-07-20T00:39:31;22.20;88.90
50162;DHT22;36061;48.116;11.612;2023-07-20T00:41:59;22.20;89.10
50162;DHT22;36061;48.116;11.612;2023-07-20T00:44:26;22.20;89.10
50162;DHT22;36061;48.116;11.612;2023-07-20T00:46:53;22.20;89.40
50162;DHT22;36061;48.116;11.612;2023-07-20T00:49:22;22.20;89.20
50162;DHT22;36061;48.116;11.612;2023-07-20T00:51:50;22.20;89.50
50162;DHT22;36061;48.116;11.612;2023-07-20T00:54:18;22.20;89.50
50162;DHT22;36061;48.116;11.612;2023-07-20T00:56:45;22.20;89.30
50162;DHT22;36061;48.116;11.612;2023-07-20T00:59:14;22.20;89.50
50162;DHT22;36061;48.116;11.612;2023-07-20T01:01:41;22.20;89.60
50162;DHT22;36061;48.116;11.612;2023-07-20T01:04:08;22.10;90.00
50162;DHT22;36061;48.116;11.612;2023-07-20T01:06:44;22.20;90.00
50162;DHT22;36061;48.116;11.612;2023-07-20T01:09:16;22.20;90.50
50162;DHT22;36061;48.116;11.612;2023-07-20T01:11:52;22.10;90.00
50162;DHT22;36061;48.116;11.612;2023-07-20T01:14:22;22.10;90.10
50162;DHT22;36061;48.116;11.612;2023-07-20T01:16:50;22.00;90.20
50162;DHT22;36061;48.116;11.612;2023-07-20T01:19:18;22.00;90.30
50162;DHT22;36061;48.116;11.612;2023-07-20T01:21:55;21.90;90.40
50162;DHT22;36061;48.116;11.612;2023-07-20T01:24:48;21.90;90.40
50162;DHT22;36061;48.116;11.612;2023-07-20T01:27:57;21.90;90.60
50162;DHT22;36061;48.116;11.612;2023-07-20T01:30:55;21.90;90.70
50162;DHT22;36061;48.116;11.612;2023-07-20T01:33:25;22.00;91.10
50162;DHT22;36061;48.116;11.612;2023-07-20T01:35:56;22.00;91.10
50162;DHT22;36061;48.116;11.612;2023-07-20T01:38:24;21.90;91.00
50162;DHT22;36061;48.116;11.612;2023-07-20T01:40:52;22.00;90.90
50162;DHT22;36061;48.116;11.612;2023-07-20T01:43:20;21.80;91.10
50162;DHT22;36061;48.116;11.612;2023-07-20T01:45:47;21.70;91.20
50162;DHT22;36061;48.116;11.612;2023-07-20T01:48:14;21.70;91.20
50162;DHT22;36061;48.116;11.612;2023-07-20T01:50:43;21.60;91.30
50162;DHT22;36061;48.116;11.612;2023-07-20T01:53:10;21.60;91.40
50162;DHT22;36061;48.116;11.612;2023-07-20T01:55:38;21.50;91.40
50162;DHT22;36061;48.116;11.612;2023-07-20T01:58:05;21.50;91.50
50162;DHT22;36061;48.116;11.612;2023-07-20T02:00:32;21.50;91.40
50162;DHT22;36061;48.116;11.612;2023-07-20T02:02:59;21.50;91.60
50162;DHT22;36061;48.116;11.612;2023-07-20T02:05:27;21.50;91.50
50162;DHT22;36061;48.116;11.612;2023-07-20T02:07:56;21.50;91.50
50162;DHT22;36061;48.116;11.612;2023-07-20T02:10:23;21.40;91.50
50162;DHT22;36061;48.116;11.612;2023-07-20T02:12:50;21.50;91.80
50162;DHT22;36061;48.116;11.612;2023-07-20T02:15:18;21.50;91.80
50162;DHT22;36061;48.116;11.612;2023-07-20T02:17:45;21.50;91.60
50162;DHT22;36061;48.116;11.612;2023-07-20T02:20:12;21.40;91.70
50162;DHT22;36061;48.116;11.612;2023-07-20T02:22:40;21.40;91.80
50162;DHT22;36061;48.116;11.612;2023-07-20T02:25:09;21.30;91.50
50162;DHT22;36061;48.116;11.612;2023-07-20T02:27:37;21.30;91.70
50162;DHT22;36061;48.116;11.612;2023-07-20T02:30:05;21.20;91.80
50162;DHT22;36061;48.116;11.612;2023-07-20T02:32:33;21.20;91.80
50162;DHT22;36061;48.116;11.612;2023-07-20T02:35:01;21.30;91.90
50162;DHT22;36061;48.116;11.612;2023-07-20T02:37:30;21.20;91.30
50162;DHT22;36061;48.116;11.612;2023-07-20T02:39:57;21.20;91.70
50162;DHT22;36061;48.116;11.612;2023-07-20T02:42:25;21.20;92.10
50162;DHT22;36061;48.116;11.612;2023-07-20T02:44:53;21.10;91.80
50162;DHT22;36061;48.116;11.612;2023-07-20T02:47:21;21.20;91.80
50162;DHT22;36061;48.116;11.612;2023-07-20T02:49:48;21.20;91.50
50162;DHT22;36061;48.116;11.612;2023-07-20T02:52:15;21.10;91.30
50162;DHT22;36061;48.116;11.612;2023-07-20T02:54:43;21.10;91.20
50162;DHT22;36061;48.116;11.612;2023-07-20T02:57:10;21.10;91.50
50162;DHT22;36061;48.116;11.612;2023-07-20T02:59:39;21.00;91.40
50162;DHT22;36061;48.116;11.612;2023-07-20T03:02:06;21.00;91.70
50162;DHT22;36061;48.116;11.612;2023-07-20T03:04:35;21.00;93.10
50162;DHT22;36061;48.116;11.612;2023-07-20T03:07:04;20.80;93.90
50162;DHT22;36061;48.116;11.612;2023-07-20T03:09:32;20.70;95.10
50162;DHT22;36061;48.116;11.612;2023-07-20T03:12:00;20.50;95.40
50162;DHT22;36061;48.116;11.612;2023-07-20T03:14:31;20.40;95.70
50162;DHT22;36061;48.116;11.612;2023-07-20T03:17:00;20.20;96.10
50162;DHT22;36061;48.116;11.612;2023-07-20T03:19:27;20.10;96.50
50162;DHT22;36061;48.116;11.612;2023-07-20T03:21:55;20.10;96.90
50162;DHT22;36061;48.116;11.612;2023-07-20T03:24:22;20.00;96.70
50162;DHT22;36061;48.116;11.612;2023-07-20T03:26:50;19.90;97.10
50162;DHT22;36061;48.116;11.612;2023-07-20T03:29:18;19.90;97.50
50162;DHT22;36061;48.116;11.612;2023-07-20T03:31:46;19.90;97.50
50162;DHT22;36061;48.116;11.612;2023-07-20T03:34:15;19.80;97.70
50162;DHT22;36061;48.116;11.612;2023-07-20T03:36:42;19.80;97.60
50162;DHT22;36061;48.116;11.612;2023-07-20T03:39:12;19.70;98.20
50162;DHT22;36061;48.116;11.612;2023-07-20T03:41:39;19.60;98.60
50162;DHT22;36061;48.116;11.612;2023-07-20T03:44:06;19.50;99.50
50162;DHT22;36061;48.116;11.612;2023-07-20T03:46:33;19.30;99.90
50162;DHT22;36061;48.116;11.612;2023-07-20T03:49:01;19.20;99.90
50162;DHT22;36061;48.116;11.612;2023-07-20T03:51:30;19.20;99.90
50162;DHT22;36061;48.116;11.612;2023-07-20T03:53:58;19.30;99.90
50162;DHT22;36061;48.116;11.612;2023-07-20T03:56:25;19.30;99.90
50162;DHT22;36061;48.116;11.612;2023-07-20T03:58:53;19.30;99.90
50162;DHT22;36061;48.116;11.612;2023-07-20T04:01:20;19.30;99.90
50162;DHT22;36061;48.116;11.612;2023-07-20T04:03:47;19.30;99.90
50162;DHT22;36061;48.116;11.612;2023-07-20T04:06:15;19.30;99.90
50162;DHT22;36061;48.116;11.612;2023-07-20T04:08:44;19.30;99.90
50162;DHT22;36061;48.116;11.612;2023-07-20T04:11:13;19.40;99.90
50162;DHT22;36061;48.116;11.612;2023-07-20T04:13:40;19.50;99.90
50162;DHT22;36061;48.116;11.612;2023-07-20T04:16:07;19.50;99.90
50162;DHT22;36061;48.116;11.612;2023-07-20T04:18:34;19.30;99.90
50162;DHT22;36061;48.116;11.612;2023-07-20T04:21:02;19.30;99.90
50162;DHT22;36061;48.116;11.612;2023-07-20T04:23:29;19.30;99.90
50162;DHT22;36061;48.116;11.612;2023-07-20T04:25:58;19.30;99.90
50162;DHT22;36061;48.116;11.612;2023-07-20T04:28:25;19.30;99.90
50162;DHT22;36061;48.116;11.612;2023-07-20T04:30:52;19.30;99.90
50162;DHT22;36061;48.116;11.612;2023-07-20T04:33:21;19.40;99.90
50162;DHT22;36061;48.116;11.612;2023-07-20T04:35:51;19.40;99.90
50162;DHT22;36061;48.116;11.612;2023-07-20T04:38:24;19.50;99.90
50162;DHT22;36061;48.116;11.612;2023-07-20T04:41:03;19.50;99.90
50162;DHT22;36061;48.116;11.612;2023-07-20T04:43:36;19.60;99.90
50162;DHT22;36061;48.116;11.612;2023-07-20T04:46:03;19.50;99.90
50162;DHT22;36061;48.116;11.612;2023-07-20T04:48:32;19.50;99.90
50162;DHT22;36061;48.116;11.612;2023-07-20T04:51:00;19.50;99.90
50162;DHT22;36061;48.116;11.612;2023-07-20T04:53:27;19.50;99.90
50162;DHT22;36061;48.116;11.612;2023-07-20T04:55:55;19.40;99.90
50162;DHT22;36061;48.116;11.612;2023-07-20T04:58:25;19.40;99.90
50162;DHT22;36061;48.116;11.612;2023-07-20T05:00:54;19.40;99.90
50162;DHT22;36061;48.116;11.612;2023-07-20T05:03:21;19.40;99.90
50162;DHT22;36061;48.116;11.612;2023-07-20T05:05:49;19.40;99.90
50162;DHT22;36061;48.116;11.612;2023-07-20T05:08:16;19.50;99.90
50162;DHT22;36061;48.116;11.612;2023-07-20T05:10:43;19.50;99.90
50162;DHT22;36061;48.116;11.612;2023-07-20T05:13:11;19.60;99.90
50162;DHT22;36061;48.116;11.612;2023-07-20T05:15:39;19.60;99.30
50162;DHT22;36061;48.116;11.612;2023-07-20T05:18:11;19.70;99.30
50162;DHT22;36061;48.116;11.612;2023-07-20T05:20:38;19.70;98.90
50162;DHT22;36061;48.116;11.612;2023-07-20T05:23:06;19.70;98.90
50162;DHT22;36061;48.116;11.612;2023-07-20T05:25:33;19.80;98.50
50162;DHT22;36061;48.116;11.612;2023-07-20T05:28:01;19.80;97.60
50162;DHT22;36061;48.116;11.612;2023-07-20T05:30:28;19.80;96.80
50162;DHT22;36061;48.116;11.612;2023-07-20T05:32:57;19.80;96.70
50162;DHT22;36061;48.116;11.612;2023-07-20T05:35:25;19.70;96.90
50162;DHT22;36061;48.116;11.612;2023-07-20T05:37:53;19.80;97.10
50162;DHT22;36061;48.116;11.612;2023-07-20T05:40:20;19.90;96.40
50162;DHT22;36061;48.116;11.612;2023-07-20T05:42:48;20.00;96.50
50162;DHT22;36061;48.116;11.612;2023-07-20T05:45:17;20.00;95.40
50162;DHT22;36061;48.116;11.612;2023-07-20T05:47:46;20.00;95.20
50162;DHT22;36061;48.116;11.612;2023-07-20T05:50:15;20.10;95.30
50162;DHT22;36061;48.116;11.612;2023-07-20T05:52:43;20.10;95.20
50162;DHT22;36061;48.116;11.612;2023-07-20T05:55:10;20.20;94.50
50162;DHT22;36061;48.116;11.612;2023-07-20T05:57:37;20.20;93.90
50162;DHT22;36061;48.116;11.612;2023-07-20T06:00:08;20.20;93.90
50162;DHT22;36061;48.116;11.612;2023-07-20T06:02:39;20.10;93.90
50162;DHT22;36061;48.116;11.612;2023-07-20T06:05:07;20.10;93.50
50162;DHT22;36061;48.116;11.612;2023-07-20T06:07:37;19.90;93.10
50162;DHT22;36061;48.116;11.612;2023-07-20T06:10:06;19.90;93.50
50162;DHT22;36061;48.116;11.612;2023-07-20T06:12:34;19.80;93.50
50162;DHT22;36061;48.116;11.612;2023-07-20T06:15:03;19.80;93.70
50162;DHT22;36061;48.116;11.612;2023-07-20T06:17:31;19.90;93.80
50162;DHT22;36061;48.116;11.612;2023-07-20T06:19:58;19.90;93.70
50162;DHT22;36061;48.116;11.612;2023-07-20T06:22:26;20.10;93.40
50162;DHT22;36061;48.116;11.612;2023-07-20T06:24:54;20.10;93.00
50162;DHT22;36061;48.116;11.612;2023-07-20T06:27:21;20.20;93.10
50162;DHT22;36061;48.116;11.612;2023-07-20T06:29:49;20.30;92.70
50162;DHT22;36061;48.116;11.612;2023-07-20T06:32:16;20.30;92.30
50162;DHT22;36061;48.116;11.612;2023-07-20T06:34:43;20.30;92.00
50162;DHT22;36061;48.116;11.612;2023-07-20T06:37:10;20.30;91.90
50162;DHT22;36061;48.116;11.612;2023-07-20T06:39:37;20.20;91.80
50162;DHT22;36061;48.116;11.612;2023-07-20T06:42:07;20.20;91.70
50162;DHT22;36061;48.116;11.612;2023-07-20T06:44:34;20.10;91.90
50162;DHT22;36061;48.116;11.612;2023-07-20T06:47:01;20.10;91.90
50162;DHT22;36061;48.116;11.612;2023-07-20T06:49:29;20.10;91.90
50162;DHT22;36061;48.116;11.612;2023-07-20T06:51:57;20.10;92.20
50162;DHT22;36061;48.116;11.612;2023-07-20T06:54:24;20.10;92.20
50162;DHT22;36061;48.116;11.612;2023-07-20T06:56:51;20.20;91.90
50162;DHT22;36061;48.116;11.612;2023-07-20T06:59:20;20.20;92.00
50162;DHT22;36061;48.116;11.612;2023-07-20T07:01:47;20.30;92.10
50162;DHT22;36061;48.116;11.612;2023-07-20T07:04:14;20.40;92.10
50162;DHT22;36061;48.116;11.612;2023-07-20T07:06:41;20.60;92.00
50162;DHT22;36061;48.116;11.612;2023-07-20T07:09:08;20.70;91.80
50162;DHT22;36061;48.116;11.612;2023-07-20T07:11:36;20.80;91.40
50162;DHT22;36061;48.116;11.612;2023-07-20T07:14:03;20.90;91.20
50162;DHT22;36061;48.116;11.612;2023-07-20T07:16:32;20.90;91.30
50162;DHT22;36061;48.116;11.612;2023-07-20T07:18:59;21.00;91.40
50162;DHT22;36061;48.116;11.612;2023-07-20T07:21:26;21.10;91.50
50162;DHT22;36061;48.116;11.612;2023-07-20T07:23:53;21.30;91.70
50162;DHT22;36061;48.116;11.612;2023-07-20T07:26:23;21.70;91.10
50162;DHT22;36061;48.116;11.612;2023-07-20T07:28:51;21.90;90.20
50162;DHT22;36061;48.116;11.612;2023-07-20T07:31:18;22.00;90.50
50162;DHT22;36061;48.116;11.612;2023-07-20T07:33:46;22.10;86.90
50162;DHT22;36061;48.116;11.612;2023-07-20T07:36:14;22.20;87.00
50162;DHT22;36061;48.116;11.612;2023-07-20T07:38:41;22.00;87.00
50162;DHT22;36061;48.116;11.612;2023-07-20T07:41:08;21.80;87.30
50162;DHT22;36061;48.116;11.612;2023-07-20T07:43:36;21.60;85.80
50162;DHT22;36061;48.116;11.612;2023-07-20T07:46:04;21.40;87.50
50162;DHT22;36061;48.116;11.612;2023-07-20T07:48:31;21.40;88.20
50162;DHT22;36061;48.116;11.612;2023-07-20T07:50:59;21.40;89.20
50162;DHT22;36061;48.116;11.612;2023-07-20T07:53:27;21.50;87.90
50162;DHT22;36061;48.116;11.612;2023-07-20T07:55:54;21.50;86.60
50162;DHT22;36061;48.116;11.612;2023-07-20T07:58:21;21.50;85.80
50162;DHT22;36061;48.116;11.612;2023-07-20T08:00:48;21.50;85.60
50162;DHT22;36061;48.116;11.612;2023-07-20T08:03:16;21.50;87.20
50162;DHT22;36061;48.116;11.612;2023-07-20T08:05:43;21.60;86.90
50162;DHT22;36061;48.116;11.612;2023-07-20T08:08:11;21.70;85.90
50162;DHT22;36061;48.116;11.612;2023-07-20T08:10:39;21.70;86.70
50162;DHT22;36061;48.116;11.612;2023-07-20T08:13:06;21.80;86.30
50162;DHT22;36061;48.116;11.612;2023-07-20T08:15:33;21.90;86.80
50162;DHT22;36061;48.116;11.612;2023-07-20T08:18:00;22.00;87.50
50162;DHT22;36061;48.116;11.612;2023-07-20T08:20:27;22.10;86.90
50162;DHT22;36061;48.116;11.612;2023-07-20T08:22:55;22.10;87.30
50162;DHT22;36061;48.116;11.612;2023-07-20T08:25:25;22.00;85.90
50162;DHT22;36061;48.116;11.612;2023-07-20T08:27:52;22.00;86.90
50162;DHT22;36061;48.116;11.612;2023-07-20T08:30:21;22.10;88.20
50162;DHT22;36061;48.116;11.612;2023-07-20T08:32:49;22.20;87.70
50162;DHT22;36061;48.116;11.612;2023-07-20T08:35:16;22.30;86.10
50162;DHT22;36061;48.116;11.612;2023-07-20T08:37:44;22.30;86.90
50162;DHT22;36061;48.116;11.612;2023-07-20T08:40:12;22.30;84.90
50162;DHT22;36061;48.116;11.612;2023-07-20T08:42:42;22.10;84.30
50162;DHT22;36061;48.116;11.612;2023-07-20T08:45:13;22.10;86.20
50162;DHT22;36061;48.116;11.612;2023-07-20T08:47:42;22.10;86.60
50162;DHT22;36061;48.116;11.612;2023-07-20T08:50:11;22.10;85.80
50162;DHT22;36061;48.116;11.612;2023-07-20T08:52:39;22.20;86.60
50162;DHT22;36061;48.116;11.612;2023-07-20T08:55:07;22.30;87.80
50162;DHT22;36061;48.116;11.612;2023-07-20T08:57:36;22.30;86.60
50162;DHT22;36061;48.116;11.612;2023-07-20T09:00:09;22.20;86.70
50162;DHT22;36061;48.116;11.612;2023-07-20T09:02:39;22.10;87.20
50162;DHT22;36061;48.116;11.612;2023-07-20T09:05:08;22.20;89.30
50162;DHT22;36061;48.116;11.612;2023-07-20T09:07:36;22.30;89.40
50162;DHT22;36061;48.116;11.612;2023-07-20T09:10:03;22.50;87.90
50162;DHT22;36061;48.116;11.612;2023-07-20T09:12:32;22.60;86.60
50162;DHT22;36061;48.116;11.612;2023-07-20T09:14:59;22.40;86.60
50162;DHT22;36061;48.116;11.612;2023-07-20T09:17:28;22.40;87.20
50162;DHT22;36061;48.116;11.612;2023-07-20T09:19:55;22.50;86.90
50162;DHT22;36061;48.116;11.612;2023-07-20T09:22:29;22.60;87.60
50162;DHT22;36061;48.116;11.612;2023-07-20T09:24:58;22.70;88.20
50162;DHT22;36061;48.116;11.612;2023-07-20T09:27:34;22.90;86.60
50162;DHT22;36061;48.116;11.612;2023-07-20T09:30:04;22.90;86.30
50162;DHT22;36061;48.116;11.612;2023-07-20T09:32:38;22.90;85.30
50162;DHT22;36061;48.116;11.612;2023-07-20T09:35:07;22.90;85.40
50162;DHT22;36061;48.116;11.612;2023-07-20T09:37:39;22.90;85.20
50162;DHT22;36061;48.116;11.612;2023-07-20T09:40:07;23.00;85.60
50162;DHT22;36061;48.116;11.612;2023-07-20T09:42:36;23.00;85.70
50162;DHT22;36061;48.116;11.612;2023-07-20T09:45:07;23.00;83.60
50162;DHT22;36061;48.116;11.612;2023-07-20T09:47:37;22.90;83.70
50162;DHT22;36061;48.116;11.612;2023-07-20T09:50:06;22.90;83.80
50162;DHT22;36061;48.116;11.612;2023-07-20T09:52:38;22.90;84.20
50162;DHT22;36061;48.116;11.612;2023-07-20T09:55:07;22.80;84.10
50162;DHT22;36061;48.116;11.612;2023-07-20T09:57:35;22.80;83.70
50162;DHT22;36061;48.116;11.612;2023-07-20T10:00:04;22.80;83.50
50162;DHT22;36061;48.116;11.612;2023-07-20T10:02:44;22.90;83.10
50162;DHT22;36061;48.116;11.612;2023-07-20T10:05:12;22.80;83.20
50162;DHT22;36061;48.116;11.612;2023-07-20T10:07:44;22.90;83.30
50162;DHT22;36061;48.116;11.612;2023-07-20T10:10:15;22.90;83.00
50162;DHT22;36061;48.116;11.612;2023-07-20T10:12:43;22.90;83.00
50162;DHT22;36061;48.116;11.612;2023-07-20T10:15:14;22.80;84.30
50162;DHT22;36061;48.116;11.612;2023-07-20T10:17:57;22.80;83.00
50162;DHT22;36061;48.116;11.612;2023-07-20T10:20:25;22.90;83.40
50162;DHT22;36061;48.116;11.612;2023-07-20T10:22:53;22.90;84.30
50162;DHT22;36061;48.116;11.612;2023-07-20T10:25:23;22.90;84.00
50162;DHT22;36061;48.116;11.612;2023-07-20T10:27:50;22.90;84.40
50162;DHT22;36061;48.116;11.612;2023-07-20T10:30:18;23.00;83.50
50162;DHT22;36061;48.116;11.612;2023-07-20T10:32:48;22.90;83.00
50162;DHT22;36061;48.116;11.612;2023-07-20T10:35:17;22.70;84.30
50162;DHT22;36061;48.116;11.612;2023-07-20T10:37:49;22.70;85.20
50162;DHT22;36061;48.116;11.612;2023-07-20T10:40:34;22.80;84.10
50162;DHT22;36061;48.116;11.612;2023-07-20T10:43:06;22.80;83.00
50162;DHT22;36061;48.116;11.612;2023-07-20T10:45:47;22.80;83.30
50162;DHT22;36061;48.116;11.612;2023-07-20T10:48:17;22.90;83.60
50162;DHT22;36061;48.116;11.612;2023-07-20T10:50:46;23.10;83.20
50162;DHT22;36061;48.116;11.612;2023-07-20T10:53:33;23.20;83.20
50162;DHT22;36061;48.116;11.612;2023-07-20T10:56:08;23.20;82.70
50162;DHT22;36061;48.116;11.612;2023-07-20T10:58:35;23.40;82.80
50162;DHT22;36061;48.116;11.612;2023-07-20T11:01:03;23.60;82.20
50162;DHT22;36061;48.116;11.612;2023-07-20T11:03:36;23.60;82.70
50162;DHT22;36061;48.116;11.612;2023-07-20T11:06:30;23.50;82.70
50162;DHT22;36061;48.116;11.612;2023-07-20T11:09:04;23.40;82.80
50162;DHT22;36061;48.116;11.612;2023-07-20T11:11:34;23.40;82.10
50162;DHT22;36061;48.116;11.612;2023-07-20T11:14:02;23.30;82.60
50162;DHT22;36061;48.116;11.612;2023-07-20T11:16:37;23.40;82.50
50162;DHT22;36061;48.116;11.612;2023-07-20T11:19:14;23.60;82.40
50162;DHT22;36061;48.116;11.612;2023-07-20T11:21:44;23.60;82.20
50162;DHT22;36061;48.116;11.612;2023-07-20T11:24:11;23.70;82.90
50162;DHT22;36061;48.116;11.612;2023-07-20T11:26:43;23.70;82.50
50162;DHT22;36061;48.116;11.612;2023-07-20T11:29:11;23.70;81.90
50162;DHT22;36061;48.116;11.612;2023-07-20T11:31:39;23.60;82.40
50162;DHT22;36061;48.116;11.612;2023-07-20T11:34:11;23.60;82.40
50162;DHT22;36061;48.116;11.612;2023-07-20T11:36:39;23.70;81.90
50162;DHT22;36061;48.116;11.612;2023-07-20T11:39:09;23.70;80.80
50162;DHT22;36061;48.116;11.612;2023-07-20T11:41:36;23.70;81.30
50162;DHT22;36061;48.116;11.612;2023-07-20T11:44:06;23.80;81.10
50162;DHT22;36061;48.116;11.612;2023-07-20T11:46:34;23.80;80.80
50162;DHT22;36061;48.116;11.612;2023-07-20T11:49:02;23.80;79.80
50162;DHT22;36061;48.116;11.612;2023-07-20T11:51:31;23.70;80.00
50162;DHT22;36061;48.116;11.612;2023-07-20T11:54:00;23.80;80.30
50162;DHT22;36061;48.116;11.612;2023-07-20T11:56:28;23.90;79.50
50162;DHT22;36061;48.116;11.612;2023-07-20T11:58:58;24.00;79.30
50162;DHT22;36061;48.116;11.612;2023-07-20T12:01:29;24.00;79.20
50162;DHT22;36061;48.116;11.612;2023-07-20T12:03:58;24.00;78.70
50162;DHT22;36061;48.116;11.612;2023-07-20T12:06:28;24.00;80.00
50162;DHT22;36061;48.116;11.612;2023-07-20T12:08:58;24.00;78.50
50162;DHT22;36061;48.116;11.612;2023-07-20T12:11:35;24.00;78.70
50162;DHT22;36061;48.116;11.612;2023-07-20T12:14:03;24.00;79.40
50162;DHT22;36061;48.116;11.612;2023-07-20T12:16:31;24.10;79.20
50162;DHT22;36061;48.116;11.612;2023-07-20T12:19:02;24.10;79.10
50162;DHT22;36061;48.116;11.612;2023-07-20T12:21:29;24.20;79.10
50162;DHT22;36061;48.116;11.612;2023-07-20T12:23:58;24.30;78.30
50162;DHT22;36061;48.116;11.612;2023-07-20T12:26:26;24.40;78.80
50162;DHT22;36061;48.116;11.612;2023-07-20T12:28:56;24.50;78.40
50162;DHT22;36061;48.116;11.612;2023-07-20T12:31:24;24.50;78.70
50162;DHT22;36061;48.116;11.612;2023-07-20T12:33:52;24.50;78.70
50162;DHT22;36061;48.116;11.612;2023-07-20T12:36:21;24.50;79.30
50162;DHT22;36061;48.116;11.612;2023-07-20T12:38:48;24.50;78.60
50162;DHT22;36061;48.116;11.612;2023-07-20T12:41:16;24.50;78.20
50162;DHT22;36061;48.116;11.612;2023-07-20T12:43:44;24.40;78.50
50162;DHT22;36061;48.116;11.612;2023-07-20T12:46:12;24.40;78.80
50162;DHT22;36061;48.116;11.612;2023-07-20T12:48:40;24.30;78.80
50162;DHT22;36061;48.116;11.612;2023-07-20T12:51:09;24.30;78.80
50162;DHT22;36061;48.116;11.612;2023-07-20T12:53:37;24.40;78.40
50162;DHT22;36061;48.116;11.612;2023-07-20T12:56:05;24.40;78.50
50162;DHT22;36061;48.116;11.612;2023-07-20T12:58:34;24.40;77.80
50162;DHT22;36061;48.116;11.612;2023-07-20T13:01:02;24.40;78.90
50162;DHT22;36061;48.116;11.612;2023-07-20T13:03:31;24.50;79.40
50162;DHT22;36061;48.116;11.612;2023-07-20T13:05:59;24.50;78.50
50162;DHT22;36061;48.116;11.612;2023-07-20T13:08:26;24.50;78.10
50162;DHT22;36061;48.116;11.612;2023-07-20T13:10:53;24.60;78.40
50162;DHT22;36061;48.116;11.612;2023-07-20T13:13:20;24.60;78.10
50162;DHT22;36061;48.116;11.612;2023-07-20T13:15:49;24.70;77.20
50162;DHT22;36061;48.116;11.612;2023-07-20T13:18:16;24.80;77.30
50162;DHT22;36061;48.116;11.612;2023-07-20T13:20:44;24.80;77.60
50162;DHT22;36061;48.116;11.612;2023-07-20T13:23:11;24.80;76.70
50162;DHT22;36061;48.116;11.612;2023-07-20T13:25:38;24.80;77.00
50162;DHT22;36061;48.116;11.612;2023-07-20T13:28:06;24.70;76.70
50162;DHT22;36061;48.116;11.612;2023-07-20T13:30:33;24.70;77.70
50162;DHT22;36061;48.116;11.612;2023-07-20T13:33:01;24.80;77.90
50162;DHT22;36061;48.116;11.612;2023-07-20T13:35:29;24.70;77.00
50162;DHT22;36061;48.116;11.612;2023-07-20T13:37:56;24.70;76.60
50162;DHT22;36061;48.116;11.612;2023-07-20T13:40:24;24.60;76.60
50162;DHT22;36061;48.116;11.612;2023-07-20T13:42:51;24.50;77.20
50162;DHT22;36061;48.116;11.612;2023-07-20T13:45:18;24.50;76.50
50162;DHT22;36061;48.116;11.612;2023-07-20T13:47:45;24.60;77.00
50162;DHT22;36061;48.116;11.612;2023-07-20T13:50:14;24.60;76.70
50162;DHT22;36061;48.116;11.612;2023-07-20T13:52:41;24.70;76.60
50162;DHT22;36061;48.116;11.612;2023-07-20T13:55:08;24.80;75.90
50162;DHT22;36061;48.116;11.612;2023-07-20T13:57:36;24.70;76.00
50162;DHT22;36061;48.116;11.612;2023-07-20T14:00:03;24.70;76.50
50162;DHT22;36061;48.116;11.612;2023-07-20T14:02:37;24.70;75.90
50162;DHT22;36061;48.116;11.612;2023-07-20T14:05:08;24.60;75.90
50162;DHT22;36061;48.116;11.612;2023-07-20T14:07:37;24.60;76.90
50162;DHT22;36061;48.116;11.612;2023-07-20T14:10:06;24.60;75.30
50162;DHT22;36061;48.116;11.612;2023-07-20T14:12:33;24.60;75.80
50162;DHT22;36061;48.116;11.612;2023-07-20T14:15:00;24.60;76.30
50162;DHT22;36061;48.116;11.612;2023-07-20T14:17:28;24.60;75.70
50162;DHT22;36061;48.116;11.612;2023-07-20T14:19:55;24.70;75.10
50162;DHT22;36061;48.116;11.612;2023-07-20T14:22:22;24.70;75.70
50162;DHT22;36061;48.116;11.612;2023-07-20T14:24:51;24.70;75.10
50162;DHT22;36061;48.116;11.612;2023-07-20T14:27:18;24.70;75.20
50162;DHT22;36061;48.116;11.612;2023-07-20T14:29:45;24.70;75.00
50162;DHT22;36061;48.116;11.612;2023-07-20T14:32:13;24.60;75.10
50162;DHT22;36061;48.116;11.612;2023-07-20T14:34:40;24.60;74.70
50162;DHT22;36061;48.116;11.612;2023-07-20T14:37:07;24.60;75.10
50162;DHT22;36061;48.116;11.612;2023-07-20T14:39:35;24.70;74.60
50162;DHT22;36061;48.116;11.612;2023-07-20T14:42:04;24.70;74.90
50162;DHT22;36061;48.116;11.612;2023-07-20T14:44:33;24.80;75.00
50162;DHT22;36061;48.116;11.612;2023-07-20T14:47:00;24.80;74.50
50162;DHT22;36061;48.116;11.612;2023-07-20T14:49:27;24.80;73.70
50162;DHT22;36061;48.116;11.612;2023-07-20T14:51:55;24.80;73.60
50162;DHT22;36061;48.116;11.612;2023-07-20T14:54:22;24.70;74.00
50162;DHT22;36061;48.116;11.612;2023-07-20T14:56:50;24.80;74.30
50162;DHT22;36061;48.116;11.612;2023-07-20T14:59:20;24.80;74.00
50162;DHT22;36061;48.116;11.612;2023-07-20T15:01:47;24.70;74.00
50162;DHT22;36061;48.116;11.612;2023-07-20T15:04:14;24.70;73.70
50162;DHT22;36061;48.116;11.612;2023-07-20T15:06:42;24.70;74.50
50162;DHT22;36061;48.116;11.612;2023-07-20T15:09:09;24.70;74.60
50162;DHT22;36061;48.116;11.612;2023-07-20T15:11:37;24.70;75.40
50162;DHT22;36061;48.116;11.612;2023-07-20T15:14:04;24.70;75.90
50162;DHT22;36061;48.116;11.612;2023-07-20T15:16:38;24.70;74.60
50162;DHT22;36061;48.116;11.612;2023-07-20T15:19:08;24.70;75.50
50162;DHT22;36061;48.116;11.612;2023-07-20T15:21:35;24.60;75.30
50162;DHT22;36061;48.116;11.612;2023-07-20T15:24:03;24.70;75.00